createdAt,value
2023-02-04T00:00:17.845Z,1019.2
2023-02-04T00:01:17.853Z,1019.39
2023-02-04T00:02:17.866Z,1019.51
2023-02-04T00:03:17.854Z,1019.5
2023-02-04T00:04:17.841Z,1019.18
2023-02-04T00:05:17.841Z,1019.8
2023-02-04T00:06:17.855Z,1019.54
2023-02-04T00:07:17.835Z,1019.5
2023-02-04T00:08:17.844Z,1019.5
2023-02-04T00:09:17.835Z,1019.71
2023-02-04T00:10:17.965Z,1019.79
2023-02-04T00:11:17.854Z,1019.87
2023-02-04T00:12:17.844Z,1019.75
2023-02-04T00:13:17.890Z,1019.94
2023-02-04T00:14:17.845Z,1020.02
2023-02-04T00:15:17.874Z,1020.15
2023-02-04T00:16:18.100Z,1020.06
2023-02-04T00:17:17.860Z,1020.24
2023-02-04T00:18:17.862Z,1020.15
2023-02-04T00:19:17.862Z,1020.19
2023-02-04T00:20:17.854Z,1020.39
2023-02-04T00:21:17.875Z,1020.45
2023-02-04T00:22:17.855Z,1020.38
2023-02-04T00:23:17.856Z,1020.38
2023-02-04T00:24:17.856Z,1020.51
2023-02-04T00:25:17.852Z,1020.67
2023-02-04T00:26:17.893Z,1020.59
2023-02-04T00:27:17.898Z,1020.65
2023-02-04T00:28:18.026Z,1020.71
2023-02-04T00:29:17.908Z,1020.75
2023-02-04T00:30:17.860Z,1020.75
2023-02-04T00:31:17.995Z,1020.75
2023-02-04T00:32:18.001Z,1020.83
2023-02-04T00:33:17.861Z,1020.95
2023-02-04T00:34:17.874Z,1021.02
2023-02-04T00:35:17.855Z,1021.09
2023-02-04T00:36:17.862Z,1021.22
2023-02-04T00:37:17.859Z,1021.26
2023-02-04T00:38:17.850Z,1021.18
2023-02-04T00:39:17.865Z,1021.11
2023-02-04T00:40:17.944Z,1021.28
2023-02-04T00:41:17.856Z,1021.3
2023-02-04T00:42:17.859Z,1021.26
2023-02-04T00:43:17.860Z,1021.28
2023-02-04T00:44:17.857Z,1021.39
2023-02-04T00:45:17.858Z,1021.36
2023-02-04T00:46:17.874Z,1021.33
2023-02-04T00:47:17.856Z,1021.39
2023-02-04T00:48:17.874Z,1021.43
2023-02-04T00:49:17.856Z,1021.43
2023-02-04T00:50:17.861Z,1021.44
2023-02-04T00:51:17.876Z,1021.43
2023-02-04T00:52:17.843Z,1021.43
2023-02-04T00:53:17.859Z,1021.42
2023-02-04T00:54:17.873Z,1021.44
2023-02-04T00:55:17.862Z,1021.55
2023-02-04T00:56:17.865Z,1021.55
2023-02-04T00:57:17.849Z,1021.56
2023-02-04T00:58:17.841Z,1021.54
2023-02-04T00:59:17.840Z,1021.51
2023-02-04T01:00:17.841Z,1021.42
2023-02-04T01:01:17.904Z,1021.58
2023-02-04T01:02:18.628Z,1021.68
2023-02-04T01:03:17.846Z,1021.67
2023-02-04T01:04:17.837Z,1021.64
2023-02-04T01:05:17.852Z,1021.62
2023-02-04T01:06:17.859Z,1021.86
2023-02-04T01:07:17.924Z,1021.78
2023-02-04T01:08:17.855Z,1021.58
2023-02-04T01:09:17.843Z,1021.73
2023-02-04T01:10:17.850Z,1021.65
2023-02-04T01:11:17.861Z,1021.77
2023-02-04T01:12:17.858Z,1021.83
2023-02-04T01:13:17.839Z,1021.95
2023-02-04T01:14:17.858Z,1021.95
2023-02-04T01:15:17.840Z,1021.95
2023-02-04T01:16:17.906Z,1022.1
2023-02-04T01:17:17.844Z,1022.1
2023-02-04T01:18:17.852Z,1022.2
2023-02-04T01:19:17.841Z,1022.33
2023-02-04T01:20:17.852Z,1022.31
2023-02-04T01:21:17.875Z,1022.44
2023-02-04T01:22:17.854Z,1022.51
2023-02-04T01:23:17.856Z,1022.55
2023-02-04T01:24:17.866Z,1022.52
2023-02-04T01:25:17.870Z,1022.48
2023-02-04T01:26:17.886Z,1022.61
2023-02-04T01:27:17.864Z,1022.44
2023-02-04T01:28:17.882Z,1022.79
2023-02-04T01:29:17.876Z,1022.81
2023-02-04T01:30:17.854Z,1022.81
2023-02-04T01:31:18.282Z,1022.97
2023-02-04T01:32:17.870Z,1023.05
2023-02-04T01:33:17.867Z,1023.04
2023-02-04T01:34:17.859Z,1023.08
2023-02-04T01:35:17.852Z,1023.15
2023-02-04T01:36:17.881Z,1023.1
2023-02-04T01:37:17.927Z,1023.11
2023-02-04T01:38:17.864Z,1023.22
2023-02-04T01:39:17.864Z,1023.22
2023-02-04T01:40:17.861Z,1023.27
2023-02-04T01:41:17.879Z,1023.35
2023-02-04T01:42:17.866Z,1023.22
2023-02-04T01:43:17.870Z,1023.27
2023-02-04T01:44:17.918Z,1023.24
2023-02-04T01:45:17.871Z,1023.39
2023-02-04T01:46:17.993Z,1023.36
2023-02-04T01:47:17.862Z,1023.4
2023-02-04T01:48:17.868Z,1023.36
2023-02-04T01:49:17.870Z,1023.51
2023-02-04T01:50:17.868Z,1023.6
2023-02-04T01:51:17.877Z,1023.87
2023-02-04T01:52:17.870Z,1023.51
2023-02-04T01:53:17.863Z,1023.63
2023-02-04T01:54:17.868Z,1023.5
2023-02-04T01:55:17.844Z,1023.5
2023-02-04T01:56:17.864Z,1023.72
2023-02-04T01:57:17.859Z,1023.86
2023-02-04T01:58:17.870Z,1024.01
2023-02-04T01:59:17.859Z,1024.06
2023-02-04T02:00:17.855Z,1024.06
2023-02-04T02:01:17.926Z,1024.09
2023-02-04T02:02:17.913Z,1024.13
2023-02-04T02:03:17.875Z,1024.12
2023-02-04T02:04:17.848Z,1024.12
2023-02-04T02:05:17.850Z,1024.21
2023-02-04T02:06:17.858Z,1023.99
2023-02-04T02:07:17.854Z,1024.19
2023-02-04T02:08:17.844Z,1024.33
2023-02-04T02:09:17.848Z,1024.33
2023-02-04T02:10:17.840Z,1024.32
2023-02-04T02:11:17.864Z,1024.2
2023-02-04T02:12:17.841Z,1024.35
2023-02-04T02:13:17.846Z,1024.33
2023-02-04T02:14:17.840Z,1024.39
2023-02-04T02:15:17.848Z,1024.46
2023-02-04T02:16:17.865Z,1024.54
2023-02-04T02:17:17.851Z,1024.54
2023-02-04T02:18:17.840Z,1024.71
2023-02-04T02:19:17.855Z,1024.66
2023-02-04T02:20:17.842Z,1024.76
2023-02-04T02:21:17.871Z,1024.76
2023-02-04T02:22:17.846Z,1024.97
2023-02-04T02:23:17.844Z,1024.85
2023-02-04T02:24:17.844Z,1024.94
2023-02-04T02:25:17.853Z,1024.9
2023-02-04T02:26:17.862Z,1025.03
2023-02-04T02:27:17.843Z,1025.07
2023-02-04T02:28:17.903Z,1025.2
2023-02-04T02:29:17.845Z,1025.16
2023-02-04T02:30:17.938Z,1025.16
2023-02-04T02:31:17.961Z,1025.24
2023-02-04T02:32:17.867Z,1025.17
2023-02-04T02:33:17.868Z,1025.29
2023-02-04T02:34:17.840Z,1025.45
2023-02-04T02:35:17.862Z,1025.46
2023-02-04T02:36:17.889Z,1025.34
2023-02-04T02:37:17.870Z,1025.57
2023-02-04T02:38:17.875Z,1025.49
2023-02-04T02:39:17.869Z,1025.61
2023-02-04T02:40:17.872Z,1025.63
2023-02-04T02:41:17.897Z,1025.68
2023-02-04T02:42:17.883Z,1025.76
2023-02-04T02:43:17.873Z,1025.78
2023-02-04T02:44:17.848Z,1025.86
2023-02-04T02:45:17.871Z,1025.94
2023-02-04T02:46:17.972Z,1025.92
2023-02-04T02:47:17.872Z,1026.02
2023-02-04T02:48:17.860Z,1026.01
2023-02-04T02:49:17.872Z,1026.06
2023-02-04T02:50:17.868Z,1026.13
2023-02-04T02:51:17.873Z,1026.19
2023-02-04T02:52:17.866Z,1026.19
2023-02-04T02:53:17.867Z,1026.28
2023-02-04T02:54:17.867Z,1026.36
2023-02-04T02:55:17.887Z,1026.42
2023-02-04T02:56:17.873Z,1026.64
2023-02-04T02:57:17.867Z,1026.49
2023-02-04T02:58:17.862Z,1026.24
2023-02-04T02:59:17.863Z,1026.49
2023-02-04T03:00:17.850Z,1026.49
2023-02-04T03:01:17.889Z,1026.64
2023-02-04T03:02:17.882Z,1026.63
2023-02-04T03:03:17.901Z,1026.67
2023-02-04T03:04:17.864Z,1026.73
2023-02-04T03:05:17.859Z,1026.86
2023-02-04T03:06:17.893Z,1026.88
2023-02-04T03:07:17.859Z,1027.02
2023-02-04T03:08:17.865Z,1027.02
2023-02-04T03:09:17.915Z,1027.01
2023-02-04T03:10:17.865Z,1026.95
2023-02-04T03:11:17.859Z,1026.95
2023-02-04T03:12:17.860Z,1027.06
2023-02-04T03:13:17.839Z,1027.1
2023-02-04T03:14:17.842Z,1027
2023-02-04T03:15:17.840Z,1027.24
2023-02-04T03:16:17.864Z,1027.22
2023-02-04T03:17:17.838Z,1027.14
2023-02-04T03:18:17.850Z,1027.12
2023-02-04T03:19:17.841Z,1026.87
2023-02-04T03:20:17.844Z,1027.5
2023-02-04T03:21:17.869Z,1027.48
2023-02-04T03:22:17.843Z,1027.3
2023-02-04T03:23:17.850Z,1027.47
2023-02-04T03:24:17.845Z,1027.45
2023-02-04T03:25:17.847Z,1027.52
2023-02-04T03:26:17.866Z,1027.6
2023-02-04T03:27:17.843Z,1027.67
2023-02-04T03:28:18.009Z,1027.7
2023-02-04T03:29:17.848Z,1027.69
2023-02-04T03:30:17.854Z,1027.69
2023-02-04T03:31:18.033Z,1027.78
2023-02-04T03:32:17.848Z,1027.85
2023-02-04T03:33:17.862Z,1027.85
2023-02-04T03:34:17.938Z,1027.91
2023-02-04T03:35:17.849Z,1027.86
2023-02-04T03:36:17.879Z,1027.93
2023-02-04T03:37:17.858Z,1028.03
2023-02-04T03:38:19.848Z,1028.1
2023-02-04T03:39:17.859Z,1028.22
2023-02-04T03:40:17.898Z,1028.22
2023-02-04T03:41:17.881Z,1028.27
2023-02-04T03:42:17.863Z,1028.27
2023-02-04T03:43:17.868Z,1028.34
2023-02-04T03:44:17.865Z,1028.47
2023-02-04T03:45:17.862Z,1028.39
2023-02-04T03:46:18.018Z,1028.47
2023-02-04T03:47:17.863Z,1028.46
2023-02-04T03:48:17.863Z,1028.49
2023-02-04T03:49:17.866Z,1028.57
2023-02-04T03:50:17.872Z,1028.65
2023-02-04T03:51:17.875Z,1028.61
2023-02-04T03:52:17.930Z,1028.68
2023-02-04T03:53:17.867Z,1028.66
2023-02-04T03:54:17.868Z,1028.75
2023-02-04T03:55:17.861Z,1028.85
2023-02-04T03:56:17.892Z,1028.91
2023-02-04T03:57:17.849Z,1028.93
2023-02-04T03:58:17.853Z,1028.93
2023-02-04T03:59:17.868Z,1029.03
2023-02-04T04:00:17.861Z,1029.03
2023-02-04T04:01:17.964Z,1029.03
2023-02-04T04:02:17.869Z,1029.05
2023-02-04T04:03:17.863Z,1029.1
2023-02-04T04:04:17.866Z,1029.16
2023-02-04T04:05:17.872Z,1029.17
2023-02-04T04:06:17.880Z,1029.15
2023-02-04T04:07:17.867Z,1029.23
2023-02-04T04:08:17.855Z,1029.23
2023-02-04T04:09:17.860Z,1029.31
2023-02-04T04:10:17.868Z,1029.27
2023-02-04T04:11:17.889Z,1029.28
2023-02-04T04:12:17.869Z,1029.33
2023-02-04T04:13:17.861Z,1029.33
2023-02-04T04:14:17.861Z,1029.35
2023-02-04T04:15:17.890Z,1029.39
2023-02-04T04:16:17.892Z,1029.39
2023-02-04T04:17:17.866Z,1029.43
2023-02-04T04:18:17.847Z,1029.46
2023-02-04T04:19:17.851Z,1029.48
2023-02-04T04:20:17.857Z,1029.57
2023-02-04T04:21:18.050Z,1029.46
2023-02-04T04:22:17.848Z,1029.53
2023-02-04T04:23:17.847Z,1029.58
2023-02-04T04:24:17.845Z,1029.56
2023-02-04T04:25:17.851Z,1029.62
2023-02-04T04:26:17.862Z,1029.69
2023-02-04T04:27:17.855Z,1029.68
2023-02-04T04:28:17.970Z,1029.72
2023-02-04T04:29:17.851Z,1029.78
2023-02-04T04:30:17.847Z,1029.78
2023-02-04T04:31:18.003Z,1029.78
2023-02-04T04:32:17.843Z,1029.78
2023-02-04T04:33:17.845Z,1029.81
2023-02-04T04:34:17.839Z,1029.81
2023-02-04T04:35:17.849Z,1029.87
2023-02-04T04:36:17.857Z,1029.82
2023-02-04T04:37:17.837Z,1029.88
2023-02-04T04:38:17.848Z,1029.86
2023-02-04T04:39:17.839Z,1029.98
2023-02-04T04:40:17.841Z,1030
2023-02-04T04:41:17.853Z,1030.01
2023-02-04T04:42:17.840Z,1029.99
2023-02-04T04:43:17.835Z,1030.03
2023-02-04T04:44:17.847Z,1030.03
2023-02-04T04:45:17.839Z,1030.16
2023-02-04T04:46:17.883Z,1030.11
2023-02-04T04:47:17.834Z,1030.15
2023-02-04T04:48:17.854Z,1030.15
2023-02-04T04:49:17.836Z,1030.21
2023-02-04T04:50:17.865Z,1030.19
2023-02-04T04:51:17.864Z,1030.27
2023-02-04T04:52:17.839Z,1030.23
2023-02-04T04:53:17.861Z,1030.26
2023-02-04T04:54:17.858Z,1030.28
2023-02-04T04:55:17.863Z,1030.38
2023-02-04T04:56:17.862Z,1030.37
2023-02-04T04:57:17.862Z,1030.45
2023-02-04T04:58:17.857Z,1030.48
2023-02-04T04:59:17.858Z,1030.48
2023-02-04T05:00:17.869Z,1030.48
2023-02-04T05:01:17.983Z,1030.56
2023-02-04T05:02:17.850Z,1030.6
2023-02-04T05:03:17.861Z,1030.63
2023-02-04T05:04:17.843Z,1030.63
2023-02-04T05:05:17.863Z,1030.64
2023-02-04T05:06:17.904Z,1030.7
2023-02-04T05:07:17.858Z,1030.68
2023-02-04T05:08:17.856Z,1030.68
2023-02-04T05:09:17.865Z,1030.79
2023-02-04T05:10:17.835Z,1030.79
2023-02-04T05:11:17.877Z,1030.81
2023-02-04T05:12:17.862Z,1030.9
2023-02-04T05:13:17.850Z,1030.92
2023-02-04T05:14:17.865Z,1030.92
2023-02-04T05:15:17.852Z,1031.01
2023-02-04T05:16:17.914Z,1030.95
2023-02-04T05:17:17.866Z,1030.93
2023-02-04T05:18:17.863Z,1030.97
2023-02-04T05:19:17.885Z,1030.97
2023-02-04T05:20:17.844Z,1031.03
2023-02-04T05:21:17.880Z,1030.98
2023-02-04T05:22:17.855Z,1031.05
2023-02-04T05:23:17.866Z,1031.08
2023-02-04T05:24:17.864Z,1031.12
2023-02-04T05:25:17.862Z,1031.16
2023-02-04T05:26:29.433Z,1031.21
2023-02-04T05:27:17.857Z,1031.28
2023-02-04T05:28:17.939Z,1031.28
2023-02-04T05:29:17.870Z,1031.26
2023-02-04T05:30:17.844Z,1031.26
2023-02-04T05:31:18.030Z,1031.3
2023-02-04T05:32:17.844Z,1031.31
2023-02-04T05:33:17.842Z,1031.38
2023-02-04T05:34:17.846Z,1031.34
2023-02-04T05:35:17.839Z,1031.35
2023-02-04T05:36:17.926Z,1031.38
2023-02-04T05:37:17.840Z,1031.39
2023-02-04T05:38:17.849Z,1031.39
2023-02-04T05:39:17.841Z,1031.41
2023-02-04T05:40:17.846Z,1031.47
2023-02-04T05:41:17.860Z,1031.5
2023-02-04T05:42:17.838Z,1031.51
2023-02-04T05:43:17.846Z,1031.62
2023-02-04T05:44:17.841Z,1031.65
2023-02-04T05:45:17.844Z,1031.66
2023-02-04T05:46:17.858Z,1031.7
2023-02-04T05:47:17.845Z,1031.72
2023-02-04T05:48:17.838Z,1031.77
2023-02-04T05:49:17.844Z,1031.84
2023-02-04T05:50:17.895Z,1031.84
2023-02-04T05:51:17.854Z,1031.87
2023-02-04T05:52:17.851Z,1032.04
2023-02-04T05:53:17.845Z,1032.02
2023-02-04T05:54:17.846Z,1032.05
2023-02-04T05:55:17.844Z,1032.06
2023-02-04T05:56:17.854Z,1032.13
2023-02-04T05:57:17.836Z,1032.18
2023-02-04T05:58:17.847Z,1032.19
2023-02-04T05:59:17.852Z,1032.23
2023-02-04T06:00:17.844Z,1032.23
2023-02-04T06:01:17.892Z,1032.22
2023-02-04T06:02:17.841Z,1032.29
2023-02-04T06:03:17.912Z,1032.19
2023-02-04T06:04:17.961Z,1032.29
2023-02-04T06:05:17.853Z,1032.34
2023-02-04T06:06:17.903Z,1032.37
2023-02-04T06:07:17.858Z,1032.42
2023-02-04T06:08:17.861Z,1032.42
2023-02-04T06:09:17.859Z,1032.45
2023-02-04T06:10:17.853Z,1032.45
2023-02-04T06:11:17.873Z,1032.51
2023-02-04T06:12:17.860Z,1032.51
2023-02-04T06:13:17.861Z,1032.5
2023-02-04T06:14:17.845Z,1032.5
2023-02-04T06:15:17.866Z,1032.59
2023-02-04T06:16:17.878Z,1032.58
2023-02-04T06:17:17.851Z,1032.71
2023-02-04T06:18:17.860Z,1032.68
2023-02-04T06:19:17.877Z,1032.77
2023-02-04T06:20:17.849Z,1032.77
2023-02-04T06:21:17.883Z,1032.84
2023-02-04T06:22:17.865Z,1032.83
2023-02-04T06:23:17.862Z,1032.94
2023-02-04T06:24:17.848Z,1032.91
2023-02-04T06:25:17.849Z,1032.91
2023-02-04T06:26:17.870Z,1032.94
2023-02-04T06:27:17.859Z,1033.03
2023-02-04T06:28:17.887Z,1033.07
2023-02-04T06:29:17.861Z,1033.16
2023-02-04T06:30:17.856Z,1033.16
2023-02-04T06:31:17.990Z,1033.19
2023-02-04T06:32:17.879Z,1033.12
2023-02-04T06:33:17.857Z,1033.22
2023-02-04T06:34:17.855Z,1033.1
2023-02-04T06:35:17.872Z,1033.22
2023-02-04T06:36:17.875Z,1033.12
2023-02-04T06:37:17.863Z,1033.18
2023-02-04T06:38:17.860Z,1033.16
2023-02-04T06:39:17.857Z,1033.17
2023-02-04T06:40:17.863Z,1033.17
2023-02-04T06:41:17.877Z,1033.24
2023-02-04T06:42:17.840Z,1033.24
2023-02-04T06:43:17.860Z,1033.28
2023-02-04T06:44:17.857Z,1033.25
2023-02-04T06:45:17.844Z,1033.25
2023-02-04T06:46:17.893Z,1033.37
2023-02-04T06:47:17.840Z,1033.36
2023-02-04T06:48:17.837Z,1033.36
2023-02-04T06:49:17.843Z,1033.41
2023-02-04T06:50:17.853Z,1033.43
2023-02-04T06:51:17.853Z,1033.49
2023-02-04T06:52:17.841Z,1033.54
2023-02-04T06:53:17.834Z,1033.57
2023-02-04T06:54:17.844Z,1033.5
2023-02-04T06:55:17.839Z,1033.59
2023-02-04T06:56:17.857Z,1033.62
2023-02-04T06:57:17.836Z,1033.64
2023-02-04T06:58:17.846Z,1033.7
2023-02-04T06:59:17.838Z,1033.72
2023-02-04T07:00:17.846Z,1033.76
2023-02-04T07:01:17.900Z,1033.81
2023-02-04T07:02:17.857Z,1033.81
2023-02-04T07:03:17.853Z,1033.81
2023-02-04T07:04:17.840Z,1033.84
2023-02-04T07:05:17.841Z,1033.86
2023-02-04T07:06:17.867Z,1033.92
2023-02-04T07:07:17.843Z,1033.98
2023-02-04T07:08:17.838Z,1033.98
2023-02-04T07:09:17.845Z,1033.98
2023-02-04T07:10:17.866Z,1033.95
2023-02-04T07:11:17.855Z,1034.07
2023-02-04T07:12:17.866Z,1034.12
2023-02-04T07:13:17.871Z,1034.1
2023-02-04T07:14:17.853Z,1034.18
2023-02-04T07:15:17.870Z,1034.15
2023-02-04T07:16:17.901Z,1034.17
2023-02-04T07:17:17.837Z,1034.21
2023-02-04T07:18:17.866Z,1034.18
2023-02-04T07:19:19.608Z,1034.24
2023-02-04T07:20:17.851Z,1034.24
2023-02-04T07:21:17.916Z,1034.23
2023-02-04T07:22:17.860Z,1034.21
2023-02-04T07:23:17.863Z,1034.23
2023-02-04T07:24:17.875Z,1034.2
2023-02-04T07:25:17.921Z,1034.24
2023-02-04T07:26:17.879Z,1034.32
2023-02-04T07:27:17.858Z,1034.28
2023-02-04T07:28:17.918Z,1034.31
2023-02-04T07:29:24.944Z,1034.33
2023-02-04T07:30:17.856Z,1034.33
2023-02-04T07:31:17.985Z,1034.38
2023-02-04T07:32:17.865Z,1034.51
2023-02-04T07:33:17.857Z,1034.46
2023-02-04T07:34:17.870Z,1034.47
2023-02-04T07:35:17.859Z,1034.57
2023-02-04T07:36:17.874Z,1034.57
2023-02-04T07:37:17.853Z,1034.61
2023-02-04T07:38:17.843Z,1034.61
2023-02-04T07:39:17.854Z,1034.67
2023-02-04T07:40:17.850Z,1034.67
2023-02-04T07:41:17.873Z,1034.73
2023-02-04T07:42:17.860Z,1034.7
2023-02-04T07:43:17.854Z,1034.77
2023-02-04T07:44:17.852Z,1034.88
2023-02-04T07:45:17.863Z,1034.82
2023-02-04T07:46:17.888Z,1034.89
2023-02-04T07:47:17.853Z,1034.92
2023-02-04T07:48:17.852Z,1034.96
2023-02-04T07:49:17.838Z,1034.96
2023-02-04T07:50:17.835Z,1034.93
2023-02-04T07:51:17.867Z,1034.92
2023-02-04T07:52:17.843Z,1034.92
2023-02-04T07:53:17.833Z,1034.97
2023-02-04T07:54:17.834Z,1034.93
2023-02-04T07:55:17.830Z,1034.93
2023-02-04T07:56:17.852Z,1034.89
2023-02-04T07:57:20.205Z,1034.87
2023-02-04T07:58:17.836Z,1034.85
2023-02-04T07:59:17.831Z,1034.83
2023-02-04T08:00:17.836Z,1034.88
2023-02-04T08:01:17.908Z,1034.89
2023-02-04T08:02:17.830Z,1034.89
2023-02-04T08:03:17.835Z,1034.87
2023-02-04T08:04:17.828Z,1034.83
2023-02-04T08:05:17.830Z,1034.91
2023-02-04T08:06:17.838Z,1034.89
2023-02-04T08:07:17.834Z,1034.9
2023-02-04T08:08:17.864Z,1034.9
2023-02-04T08:09:17.831Z,1034.91
2023-02-04T08:10:17.964Z,1034.91
2023-02-04T08:11:17.848Z,1034.97
2023-02-04T08:12:17.822Z,1034.92
2023-02-04T08:13:17.822Z,1034.89
2023-02-04T08:14:17.830Z,1034.92
2023-02-04T08:15:17.823Z,1034.92
2023-02-04T08:16:17.965Z,1034.87
2023-02-04T08:17:17.821Z,1034.9
2023-02-04T08:18:17.847Z,1034.97
2023-02-04T08:19:17.822Z,1034.97
2023-02-04T08:20:17.832Z,1035
2023-02-04T08:21:19.389Z,1035.08
2023-02-04T08:22:17.846Z,1035.07
2023-02-04T08:23:17.843Z,1035.11
2023-02-04T08:24:17.842Z,1035.15
2023-02-04T08:25:17.846Z,1035.14
2023-02-04T08:26:17.861Z,1035.16
2023-02-04T08:27:17.844Z,1035.16
2023-02-04T08:28:17.909Z,1035.21
2023-02-04T08:29:17.836Z,1035.25
2023-02-04T08:30:17.826Z,1035.25
2023-02-04T08:31:18.036Z,1035.31
2023-02-04T08:32:17.836Z,1035.29
2023-02-04T08:33:17.846Z,1035.33
2023-02-04T08:34:17.826Z,1035.35
2023-02-04T08:35:17.841Z,1035.39
2023-02-04T08:36:17.852Z,1035.35
2023-02-04T08:37:17.823Z,1035.35
2023-02-04T08:38:17.843Z,1035.36
2023-02-04T08:39:17.846Z,1035.4
2023-02-04T08:40:19.621Z,1035.4
2023-02-04T08:41:17.854Z,1035.43
2023-02-04T08:42:17.842Z,1035.36
2023-02-04T08:43:17.834Z,1035.47
2023-02-04T08:44:17.837Z,1035.46
2023-02-04T08:45:17.853Z,1035.46
2023-02-04T08:46:17.888Z,1035.5
2023-02-04T08:47:17.849Z,1035.56
2023-02-04T08:48:17.831Z,1035.56
2023-02-04T08:49:17.849Z,1035.56
2023-02-04T08:50:17.844Z,1035.56
2023-02-04T08:51:17.869Z,1035.6
2023-02-04T08:52:17.852Z,1035.57
2023-02-04T08:53:17.938Z,1035.56
2023-02-04T08:54:17.861Z,1035.62
2023-02-04T08:55:17.842Z,1035.62
2023-02-04T08:56:17.881Z,1035.64
2023-02-04T08:57:17.868Z,1035.63
2023-02-04T08:58:17.866Z,1035.68
2023-02-04T08:59:17.862Z,1035.69
2023-02-04T09:00:17.881Z,1035.69
2023-02-04T09:01:17.888Z,1035.74
2023-02-04T09:02:17.863Z,1035.77
2023-02-04T09:03:17.850Z,1035.75
2023-02-04T09:04:17.846Z,1035.75
2023-02-04T09:05:17.860Z,1035.73
2023-02-04T09:06:17.867Z,1035.77
2023-02-04T09:07:17.868Z,1035.79
2023-02-04T09:08:17.853Z,1035.85
2023-02-04T09:09:17.853Z,1035.85
2023-02-04T09:10:17.885Z,1035.95
2023-02-04T09:11:17.862Z,1035.92
2023-02-04T09:12:17.849Z,1035.9
2023-02-04T09:13:17.853Z,1035.91
2023-02-04T09:14:17.850Z,1035.92
2023-02-04T09:15:17.859Z,1035.93
2023-02-04T09:16:17.920Z,1035.96
2023-02-04T09:17:17.861Z,1036
2023-02-04T09:18:17.856Z,1036
2023-02-04T09:19:17.855Z,1036.07
2023-02-04T09:20:17.860Z,1036.07
2023-02-04T09:21:17.872Z,1036.09
2023-02-04T09:22:17.857Z,1036.14
2023-02-04T09:23:17.853Z,1036.17
2023-02-04T09:24:17.859Z,1036.21
2023-02-04T09:25:17.859Z,1036.23
2023-02-04T09:26:17.887Z,1036.21
2023-02-04T09:27:17.871Z,1036.21
2023-02-04T09:28:17.983Z,1036.28
2023-02-04T09:29:17.882Z,1036.26
2023-02-04T09:30:17.877Z,1036.26
2023-02-04T09:31:18.060Z,1036.26
2023-02-04T09:32:17.870Z,1036.26
2023-02-04T09:33:17.893Z,1036.26
2023-02-04T09:34:17.875Z,1036.26
2023-02-04T09:35:17.877Z,1036.26
2023-02-04T09:36:17.889Z,1036.22
2023-02-04T09:37:17.880Z,1036.3
2023-02-04T09:38:17.879Z,1036.32
2023-02-04T09:39:17.876Z,1036.37
2023-02-04T09:40:17.877Z,1036.37
2023-02-04T09:41:17.905Z,1036.46
2023-02-04T09:42:17.891Z,1036.48
2023-02-04T09:43:17.881Z,1036.52
2023-02-04T09:44:17.885Z,1036.52
2023-02-04T09:45:17.865Z,1036.55
2023-02-04T09:46:18.042Z,1036.59
2023-02-04T09:47:17.877Z,1036.57
2023-02-04T09:48:17.890Z,1036.59
2023-02-04T09:49:17.884Z,1036.65
2023-02-04T09:50:17.874Z,1036.65
2023-02-04T09:51:17.897Z,1036.63
2023-02-04T09:52:17.879Z,1036.68
2023-02-04T09:53:17.878Z,1036.71
2023-02-04T09:54:17.876Z,1036.75
2023-02-04T09:55:17.866Z,1036.75
2023-02-04T09:56:17.889Z,1036.74
2023-02-04T09:57:17.873Z,1036.77
2023-02-04T09:58:17.875Z,1036.73
2023-02-04T09:59:17.868Z,1036.75
2023-02-04T10:00:17.861Z,1036.75
2023-02-04T10:01:17.978Z,1036.73
2023-02-04T10:02:17.980Z,1036.73
2023-02-04T10:03:17.900Z,1036.78
2023-02-04T10:04:17.869Z,1036.78
2023-02-04T10:05:17.849Z,1036.77
2023-02-04T10:06:17.892Z,1036.72
2023-02-04T10:07:17.861Z,1036.74
2023-02-04T10:08:17.869Z,1036.74
2023-02-04T10:09:17.846Z,1036.76
2023-02-04T10:10:17.852Z,1036.8
2023-02-04T10:11:17.855Z,1036.77
2023-02-04T10:12:17.849Z,1036.82
2023-02-04T10:13:17.842Z,1036.79
2023-02-04T10:14:17.843Z,1036.8
2023-02-04T10:15:17.843Z,1036.83
2023-02-04T10:16:17.891Z,1036.86
2023-02-04T10:17:17.841Z,1036.89
2023-02-04T10:18:17.839Z,1036.8
2023-02-04T10:19:17.843Z,1036.79
2023-02-04T10:20:17.842Z,1036.85
2023-02-04T10:21:17.862Z,1036.86
2023-02-04T10:22:17.842Z,1036.88
2023-02-04T10:23:17.834Z,1036.79
2023-02-04T10:24:17.839Z,1036.83
2023-02-04T10:25:17.850Z,1036.83
2023-02-04T10:26:17.898Z,1036.85
2023-02-04T10:27:17.849Z,1036.85
2023-02-04T10:28:17.997Z,1036.85
2023-02-04T10:29:17.849Z,1036.84
2023-02-04T10:30:17.848Z,1036.84
2023-02-04T10:31:18.030Z,1036.88
2023-02-04T10:32:17.837Z,1036.9
2023-02-04T10:33:17.854Z,1036.88
2023-02-04T10:34:19.054Z,1036.94
2023-02-04T10:35:17.841Z,1036.96
2023-02-04T10:36:17.874Z,1036.98
2023-02-04T10:37:17.864Z,1037.01
2023-02-04T10:38:17.859Z,1037.01
2023-02-04T10:39:17.848Z,1036.99
2023-02-04T10:40:17.961Z,1036.99
2023-02-04T10:41:17.884Z,1037.08
2023-02-04T10:42:17.857Z,1037.1
2023-02-04T10:43:17.924Z,1037.07
2023-02-04T10:44:17.867Z,1037.09
2023-02-04T10:45:17.877Z,1037.06
2023-02-04T10:46:18.009Z,1037.1
2023-02-04T10:47:17.869Z,1037.14
2023-02-04T10:48:17.872Z,1037.12
2023-02-04T10:49:17.860Z,1037.16
2023-02-04T10:50:17.868Z,1037.16
2023-02-04T10:51:17.881Z,1037.17
2023-02-04T10:52:17.975Z,1037.24
2023-02-04T10:53:17.853Z,1037.26
2023-02-04T10:54:17.875Z,1037.26
2023-02-04T10:55:17.859Z,1037.3
2023-02-04T10:56:17.883Z,1037.31
2023-02-04T10:57:17.867Z,1037.33
2023-02-04T10:58:17.867Z,1037.32
2023-02-04T10:59:17.851Z,1037.29
2023-02-04T11:00:17.944Z,1037.29
2023-02-04T11:01:17.891Z,1037.32
2023-02-04T11:02:17.862Z,1037.36
2023-02-04T11:03:17.919Z,1037.31
2023-02-04T11:04:17.863Z,1037.3
2023-02-04T11:05:17.872Z,1037.3
2023-02-04T11:06:17.881Z,1037.38
2023-02-04T11:07:17.859Z,1037.4
2023-02-04T11:08:17.867Z,1037.41
2023-02-04T11:09:17.864Z,1037.38
2023-02-04T11:10:17.984Z,1037.38
2023-02-04T11:11:17.884Z,1037.41
2023-02-04T11:12:17.925Z,1037.37
2023-02-04T11:13:17.867Z,1037.38
2023-02-04T11:14:17.859Z,1037.35
2023-02-04T11:15:17.859Z,1037.37
2023-02-04T11:16:17.950Z,1037.36
2023-02-04T11:17:17.849Z,1037.36
2023-02-04T11:18:17.850Z,1037.33
2023-02-04T11:19:17.850Z,1037.36
2023-02-04T11:20:18.072Z,1037.37
2023-02-04T11:21:19.400Z,1037.37
2023-02-04T11:22:17.849Z,1037.34
2023-02-04T11:23:17.854Z,1037.36
2023-02-04T11:24:17.849Z,1037.39
2023-02-04T11:25:17.857Z,1037.41
2023-02-04T11:26:17.868Z,1037.42
2023-02-04T11:27:17.844Z,1037.46
2023-02-04T11:28:17.921Z,1037.46
2023-02-04T11:29:17.844Z,1037.44
2023-02-04T11:30:17.855Z,1037.44
2023-02-04T11:31:18.077Z,1037.46
2023-02-04T11:32:17.842Z,1037.44
2023-02-04T11:33:17.847Z,1037.44
2023-02-04T11:34:17.849Z,1037.47
2023-02-04T11:35:17.848Z,1037.43
2023-02-04T11:36:17.865Z,1037.41
2023-02-04T11:37:17.847Z,1037.44
2023-02-04T11:38:17.841Z,1037.45
2023-02-04T11:39:17.846Z,1037.33
2023-02-04T11:40:17.854Z,1037.33
2023-02-04T11:41:17.852Z,1037.37
2023-02-04T11:42:17.840Z,1037.31
2023-02-04T11:43:17.835Z,1037.36
2023-02-04T11:44:17.843Z,1037.38
2023-02-04T11:45:17.860Z,1037.41
2023-02-04T11:46:18.038Z,1037.34
2023-02-04T11:47:17.859Z,1037.37
2023-02-04T11:48:17.849Z,1037.36
2023-02-04T11:49:17.856Z,1037.42
2023-02-04T11:50:17.846Z,1037.42
2023-02-04T11:51:17.873Z,1037.41
2023-02-04T11:52:17.858Z,1037.47
2023-02-04T11:53:17.856Z,1037.43
2023-02-04T11:54:17.838Z,1037.45
2023-02-04T11:55:17.859Z,1037.46
2023-02-04T11:56:17.885Z,1037.52
2023-02-04T11:57:17.860Z,1037.45
2023-02-04T11:58:17.862Z,1037.44
2023-02-04T11:59:17.861Z,1037.45
2023-02-04T12:00:17.864Z,1037.45
2023-02-04T12:01:17.876Z,1037.46
2023-02-04T12:02:17.994Z,1037.47
2023-02-04T12:03:17.856Z,1037.47
2023-02-04T12:04:17.863Z,1037.54
2023-02-04T12:05:17.869Z,1037.49
2023-02-04T12:06:17.860Z,1037.42
2023-02-04T12:07:17.865Z,1037.45